Time;durP1;ratioP1;P1;durP2;ratioP2;P2;SDS_P1;SDS_P2;PMS_P1;PMS_P2;Temp;Humidity;BMP_temperature;BMP_pressure;BME280_temperature;BME280_humidity;BME280_pressure;Samples;Min_cycle;Max_cycle;Signal;HPM_P1;HPM_P2
2022/11/21 00:01:23;;;;;;;;;0.00;0.00;;;;;;;;5075331;28;8839;-93
2022/11/21 00:03:49;;;;;;;;;0.00;0.00;;;;;;;;5075743;28;8795;-93
2022/11/21 00:06:15;;;;;;;;;0.00;0.00;;;;;;;;5075389;28;9581;-93
2022/11/21 00:08:40;;;;;;;;;0.00;0.00;;;;;;;;5075457;28;8814;-93
2022/11/21 00:11:05;;;;;;;;;0.00;0.00;;;;;;;;5075596;28;8806;-94
2022/11/21 00:13:30;;;;;;;;;0.00;0.00;;;;;;;;5075418;28;8826;-93
2022/11/21 00:15:55;;;;;;;;;0.00;0.00;;;;;;;;5075000;28;9575;-93
2022/11/21 00:18:21;;;;;;;;;0.00;0.00;;;;;;;;5075300;28;8814;-92
2022/11/21 00:20:46;;;;;;;;;0.00;0.00;;;;;;;;5075713;28;8895;-93
2022/11/21 00:23:11;;;;;;;;;0.00;0.00;;;;;;;;5075749;28;8814;-93
2022/11/21 00:25:37;;;;;;;;;0.00;0.00;;;;;;;;5075710;28;8810;-94
2022/11/21 00:28:02;;;;;;;;;0.00;0.00;;;;;;;;5073850;28;8822;-92
2022/11/21 00:30:28;;;;;;;;;0.00;0.00;;;;;;;;5093556;28;8837;-93
2022/11/21 00:32:53;;;;;;;;;0.00;0.00;;;;;;;;5075714;28;8818;-93
2022/11/21 00:35:18;;;;;;;;;0.00;0.00;;;;;;;;5076410;28;9518;-93
2022/11/21 00:37:43;;;;;;;;;0.00;0.00;;;;;;;;5076856;28;8831;-93
2022/11/21 00:40:09;;;;;;;;;0.00;0.00;;;;;;;;5074374;28;8919;-93
2022/11/21 00:42:34;;;;;;;;;0.00;0.00;;;;;;;;5079974;28;8811;-91
2022/11/21 00:44:59;;;;;;;;;0.00;0.00;;;;;;;;5080296;28;8869;-93
2022/11/21 00:47:24;;;;;;;;;0.00;0.00;;;;;;;;5096266;28;8843;-94
2022/11/21 00:49:50;;;;;;;;;0.00;0.00;;;;;;;;5095361;28;8824;-94
2022/11/21 00:52:15;;;;;;;;;0.00;0.00;;;;;;;;5075182;28;8843;-93
2022/11/21 00:54:40;;;;;;;;;0.00;0.00;;;;;;;;5075181;28;8884;-94
2022/11/21 00:57:06;;;;;;;;;0.00;0.00;;;;;;;;5074681;28;8926;-93
2022/11/21 00:59:31;;;;;;;;;0.00;0.00;;;;;;;;5074151;28;8805;-94
2022/11/21 01:01:56;;;;;;;;;0.00;0.00;;;;;;;;5074438;28;8834;-94
2022/11/21 01:04:21;;;;;;;;;0.00;0.00;;;;;;;;5074322;28;8802;-93
2022/11/21 01:06:46;;;;;;;;;0.00;0.00;;;;;;;;5075370;28;8825;-93
2022/11/21 01:09:12;;;;;;;;;0.00;0.00;;;;;;;;5075189;28;8803;-94
2022/11/21 01:11:37;;;;;;;;;0.00;0.00;;;;;;;;5074166;28;8831;-94
2022/11/21 01:14:02;;;;;;;;;0.00;0.00;;;;;;;;5073543;28;8802;-93
2022/11/21 01:16:28;;;;;;;;;0.00;0.00;;;;;;;;5073780;28;8952;-94
2022/11/21 01:18:53;;;;;;;;;0.00;0.00;;;;;;;;5092597;28;8915;-94
2022/11/21 01:21:21;;;;;;;;;0.00;0.00;;;;;;;;5074797;28;9694;-93
2022/11/21 01:23:47;;;;;;;;;0.00;0.00;;;;;;;;5092728;28;8806;-93
2022/11/21 01:26:13;;;;;;;;;0.00;0.00;;;;;;;;5074751;28;8823;-93
2022/11/21 01:28:39;;;;;;;;;0.00;0.00;;;;;;;;5073902;28;9713;-93
2022/11/21 01:31:04;;;;;;;;;0.00;0.00;;;;;;;;5074096;28;8795;-93
2022/11/21 01:33:30;;;;;;;;;0.00;0.00;;;;;;;;5073081;28;8819;-93
2022/11/21 01:35:55;;;;;;;;;0.00;0.00;;;;;;;;5075283;28;8810;-93
2022/11/21 01:38:21;;;;;;;;;0.00;0.00;;;;;;;;5074435;28;8918;-93
2022/11/21 01:40:46;;;;;;;;;0.00;0.00;;;;;;;;5075718;28;8833;-93
2022/11/21 01:43:13;;;;;;;;;0.00;0.00;;;;;;;;5076410;28;8892;-93
2022/11/21 01:45:48;;;;;;;;;0.00;0.00;;;;;;;;5079954;28;8809;-93
2022/11/21 01:48:13;;;;;;;;;0.00;0.00;;;;;;;;5079280;28;8770;-92
2022/11/21 01:50:38;;;;;;;;;0.00;0.00;;;;;;;;5077014;28;8790;-93
2022/11/21 01:53:03;;;;;;;;;0.00;0.00;;;;;;;;5074121;28;8847;-93
2022/11/21 01:55:29;;;;;;;;;0.00;0.00;;;;;;;;5073968;28;8810;-94
2022/11/21 01:57:54;;;;;;;;;0.00;0.00;;;;;;;;5074547;28;8830;-93
2022/11/21 02:00:28;;;;;;;;;0.00;0.00;;;;;;;;5070080;28;8821;-94
2022/11/21 02:02:57;;;;;;;;;0.00;0.00;;;;;;;;5053669;28;8808;-93
2022/11/21 02:05:24;;;;;;;;;0.00;0.00;;;;;;;;5054584;28;8820;-93
2022/11/21 02:07:51;;;;;;;;;0.00;0.00;;;;;;;;5057976;28;8974;-92
2022/11/21 02:10:16;;;;;;;;;0.00;0.00;;;;;;;;5073541;28;8811;-93
2022/11/21 02:12:49;;;;;;;;;0.00;0.00;;;;;;;;5073738;28;8818;-93
2022/11/21 02:15:15;;;;;;;;;0.00;0.00;;;;;;;;5072755;28;8888;-92
2022/11/21 02:17:41;;;;;;;;;0.00;0.00;;;;;;;;5091032;28;8831;-92
2022/11/21 02:20:08;;;;;;;;;0.00;0.00;;;;;;;;5073619;28;8795;-92
2022/11/21 02:22:52;;;;;;;;;0.00;0.00;;;;;;;;5074006;28;8799;-92
2022/11/21 02:25:19;;;;;;;;;0.00;0.00;;;;;;;;5074041;28;8783;-93
2022/11/21 02:27:44;;;;;;;;;0.00;0.00;;;;;;;;5073672;28;8818;-92
2022/11/21 02:30:10;;;;;;;;;0.00;0.00;;;;;;;;5072062;28;8818;-92
2022/11/21 02:32:40;;;;;;;;;0.00;0.00;;;;;;;;5072946;28;8803;-92
2022/11/21 02:35:06;;;;;;;;;0.00;0.00;;;;;;;;5073424;28;8813;-91
2022/11/21 02:37:32;;;;;;;;;0.00;0.00;;;;;;;;5073897;28;8827;-92
2022/11/21 02:40:00;;;;;;;;;0.00;0.00;;;;;;;;5073058;28;8803;-91
2022/11/21 02:42:42;;;;;;;;;0.00;0.00;;;;;;;;5074082;28;8813;-93
2022/11/21 02:45:10;;;;;;;;;0.00;0.00;;;;;;;;5072033;28;8834;-92
2022/11/21 02:47:37;;;;;;;;;0.00;0.00;;;;;;;;5074040;28;8813;-92
2022/11/21 02:50:21;;;;;;;;;0.00;0.00;;;;;;;;5075948;28;8794;-91
2022/11/21 02:52:46;;;;;;;;;0.00;0.00;;;;;;;;5076396;28;8794;-90
2022/11/21 02:55:14;;;;;;;;;0.00;0.00;;;;;;;;5076066;28;8814;-91
2022/11/21 02:57:39;;;;;;;;;0.00;0.00;;;;;;;;5074574;28;8846;-91
2022/11/21 03:00:04;;;;;;;;;0.00;0.00;;;;;;;;5072136;28;8787;-92
2022/11/21 03:02:30;;;;;;;;;0.00;0.00;;;;;;;;5073506;28;8810;-92
2022/11/21 03:04:56;;;;;;;;;0.00;0.00;;;;;;;;5072944;28;8822;-92
2022/11/21 03:07:21;;;;;;;;;0.00;0.00;;;;;;;;5073421;28;8791;-92
2022/11/21 03:09:46;;;;;;;;;0.00;0.00;;;;;;;;5090889;28;8849;-92
2022/11/21 03:12:11;;;;;;;;;0.00;0.00;;;;;;;;5069528;28;8813;-92
2022/11/21 03:14:36;;;;;;;;;0.00;0.00;;;;;;;;5069926;28;8801;-91
2022/11/21 03:17:02;;;;;;;;;0.00;0.00;;;;;;;;5069245;28;8899;-92
2022/11/21 03:19:27;;;;;;;;;0.00;0.00;;;;;;;;5072112;28;8857;-92
2022/11/21 03:21:53;;;;;;;;;0.00;0.00;;;;;;;;5072906;28;8811;-92
2022/11/21 03:24:18;;;;;;;;;0.00;0.00;;;;;;;;5072338;28;8814;-92
2022/11/21 03:26:43;;;;;;;;;0.00;0.00;;;;;;;;5072577;28;8952;-93
2022/11/21 03:29:08;;;;;;;;;0.00;0.00;;;;;;;;5071927;28;8945;-92
2022/11/21 03:31:34;;;;;;;;;0.00;0.00;;;;;;;;5071594;28;9472;-92
2022/11/21 03:33:59;;;;;;;;;0.00;0.00;;;;;;;;5072394;28;8856;-92
2022/11/21 03:36:24;;;;;;;;;0.00;0.00;;;;;;;;5072618;28;8826;-93
2022/11/21 03:38:49;;;;;;;;;0.00;0.00;;;;;;;;5071991;28;8845;-92
2022/11/21 03:41:30;;;;;;;;;0.00;0.00;;;;;;;;5072389;28;8811;-92
2022/11/21 03:43:55;;;;;;;;;0.00;0.00;;;;;;;;5071406;28;8812;-92
2022/11/21 03:46:20;;;;;;;;;0.00;0.00;;;;;;;;5072080;28;8811;-92
2022/11/21 03:48:45;;;;;;;;;0.00;0.00;;;;;;;;5072472;28;8810;-92
2022/11/21 03:51:11;;;;;;;;;0.00;0.00;;;;;;;;5072278;28;8896;-92
2022/11/21 03:53:36;;;;;;;;;0.00;0.00;;;;;;;;5073564;28;8791;-91
2022/11/21 03:56:01;;;;;;;;;0.00;0.00;;;;;;;;5077114;28;8838;-92
2022/11/21 03:58:26;;;;;;;;;0.00;0.00;;;;;;;;5075100;28;8823;-92
2022/11/21 04:00:51;;;;;;;;;0.00;0.00;;;;;;;;5068847;28;8843;-92
2022/11/21 04:03:17;;;;;;;;;0.00;0.00;;;;;;;;5069630;28;8801;-92
2022/11/21 04:05:43;;;;;;;;;0.00;0.00;;;;;;;;5072452;28;8911;-92
2022/11/21 04:08:08;;;;;;;;;0.00;0.00;;;;;;;;5075471;28;8943;-93
2022/11/21 04:10:34;;;;;;;;;0.00;0.00;;;;;;;;5075963;28;8830;-92
2022/11/21 04:12:59;;;;;;;;;0.00;0.00;;;;;;;;5075137;28;8807;-93
2022/11/21 04:15:24;;;;;;;;;0.00;0.00;;;;;;;;5075698;28;8911;-92
2022/11/21 04:17:49;;;;;;;;;0.00;0.00;;;;;;;;5075489;28;9578;-92
2022/11/21 04:20:15;;;;;;;;;0.00;0.00;;;;;;;;5076191;28;8955;-92
2022/11/21 04:22:41;;;;;;;;;0.00;0.00;;;;;;;;5094271;28;8817;-91
2022/11/21 04:25:06;;;;;;;;;0.00;0.00;;;;;;;;5075799;28;8829;-91
2022/11/21 04:27:31;;;;;;;;;0.00;0.00;;;;;;;;5075055;28;9561;-92
2022/11/21 04:29:57;;;;;;;;;0.00;0.00;;;;;;;;5074461;28;8821;-92
2022/11/21 04:32:22;;;;;;;;;0.00;0.00;;;;;;;;5075290;28;8811;-92
2022/11/21 04:34:47;;;;;;;;;0.00;0.00;;;;;;;;5075419;28;8823;-92
2022/11/21 04:37:12;;;;;;;;;0.00;0.00;;;;;;;;5075507;28;8807;-92
2022/11/21 04:39:37;;;;;;;;;0.00;0.00;;;;;;;;5075239;28;8814;-92
2022/11/21 04:42:03;;;;;;;;;0.00;0.00;;;;;;;;5075536;28;9632;-92
2022/11/21 04:44:28;;;;;;;;;0.00;0.00;;;;;;;;5074901;28;8868;-92
2022/11/21 04:46:53;;;;;;;;;0.00;0.00;;;;;;;;5074595;28;8819;-92
2022/11/21 04:49:18;;;;;;;;;0.00;0.00;;;;;;;;5075150;28;8795;-92
2022/11/21 04:51:43;;;;;;;;;0.00;0.00;;;;;;;;5076260;28;8819;-92
2022/11/21 04:54:09;;;;;;;;;0.00;0.00;;;;;;;;5075969;28;8813;-93
2022/11/21 04:56:35;;;;;;;;;0.00;0.00;;;;;;;;5078343;28;8795;-92
2022/11/21 04:59:00;;;;;;;;;0.00;0.00;;;;;;;;5096817;28;8814;-91
2022/11/21 05:01:25;;;;;;;;;0.00;0.00;;;;;;;;5078387;28;8965;-92
2022/11/21 05:03:51;;;;;;;;;0.00;0.00;;;;;;;;5075545;28;8817;-92
2022/11/21 05:06:16;;;;;;;;;0.00;0.00;;;;;;;;5075006;28;9553;-91
2022/11/21 05:08:41;;;;;;;;;0.00;0.00;;;;;;;;5074648;28;8860;-92
2022/11/21 05:13:51;;;;;;;;;0.00;0.00;;;;;;;;5086495;28;8799;-93
2022/11/21 05:16:17;;;;;;;;;0.00;0.00;;;;;;;;5074500;28;8822;-93
2022/11/21 05:18:42;;;;;;;;;0.00;0.00;;;;;;;;5074881;28;8825;-93
2022/11/21 05:21:07;;;;;;;;;0.00;0.00;;;;;;;;5075108;28;8791;-92
2022/11/21 05:23:32;;;;;;;;;0.00;0.00;;;;;;;;5075130;28;8846;-92
2022/11/21 05:25:58;;;;;;;;;0.00;0.00;;;;;;;;5074884;28;8807;-92
2022/11/21 05:28:23;;;;;;;;;0.00;0.00;;;;;;;;5074226;28;8825;-92
2022/11/21 05:30:48;;;;;;;;;0.00;0.00;;;;;;;;5074922;28;8807;-92
2022/11/21 05:33:13;;;;;;;;;0.00;0.00;;;;;;;;5074163;28;8838;-93
2022/11/21 05:35:38;;;;;;;;;0.00;0.00;;;;;;;;5076498;28;8814;-92
2022/11/21 05:38:05;;;;;;;;;0.00;0.00;;;;;;;;5093771;28;8798;-93
2022/11/21 05:40:30;;;;;;;;;0.00;0.00;;;;;;;;5074500;28;8787;-94
2022/11/21 05:45:39;;;;;;;;;0.00;0.00;;;;;;;;5092016;28;8724;-94
2022/11/21 05:48:07;;;;;;;;;0.00;0.00;;;;;;;;5090276;28;8826;-94
2022/11/21 05:50:36;;;;;;;;;0.00;0.00;;;;;;;;5094843;28;8823;-93
2022/11/21 05:53:04;;;;;;;;;0.00;0.00;;;;;;;;5112713;28;8781;-93
2022/11/21 05:55:30;;;;;;;;;0.00;0.00;;;;;;;;5095364;28;8867;-93
2022/11/21 05:57:59;;;;;;;;;0.00;0.00;;;;;;;;5075388;28;9858;-93
2022/11/21 06:00:25;;;;;;;;;0.00;0.00;;;;;;;;5077224;28;8807;-93
2022/11/21 06:05:34;;;;;;;;;0.00;0.00;;;;;;;;5097333;28;8787;-93
2022/11/21 06:07:59;;;;;;;;;0.00;0.00;;;;;;;;5092083;28;8841;-94
2022/11/21 06:10:24;;;;;;;;;0.00;0.00;;;;;;;;5074084;28;8830;-94
2022/11/21 06:12:49;;;;;;;;;0.00;0.00;;;;;;;;5073854;28;8823;-94
2022/11/21 06:15:14;;;;;;;;;0.00;0.00;;;;;;;;5073252;28;8811;-93
2022/11/21 06:17:40;;;;;;;;;0.00;0.00;;;;;;;;5073721;28;9539;-94
2022/11/21 06:20:05;;;;;;;;;0.00;0.00;;;;;;;;5073112;28;8826;-93
2022/11/21 06:22:30;;;;;;;;;0.00;0.00;;;;;;;;5074106;28;8795;-93
2022/11/21 06:24:56;;;;;;;;;0.00;0.00;;;;;;;;5073267;28;8807;-93
2022/11/21 06:27:21;;;;;;;;;0.00;0.00;;;;;;;;5073574;28;9545;-93
2022/11/21 06:29:46;;;;;;;;;0.00;0.00;;;;;;;;5072903;28;8783;-93
2022/11/21 06:32:11;;;;;;;;;0.00;0.00;;;;;;;;5073392;28;8807;-93
2022/11/21 06:34:37;;;;;;;;;0.00;0.00;;;;;;;;5073835;28;8815;-93
2022/11/21 06:37:02;;;;;;;;;0.00;0.00;;;;;;;;5073491;28;8798;-94
2022/11/21 06:39:27;;;;;;;;;0.00;0.00;;;;;;;;5070104;28;8847;-94
2022/11/21 06:41:52;;;;;;;;;0.00;0.00;;;;;;;;5071793;28;8808;-93
2022/11/21 06:44:17;;;;;;;;;0.00;0.00;;;;;;;;5053254;28;8823;-94
2022/11/21 06:46:43;;;;;;;;;0.00;0.00;;;;;;;;5070784;28;8797;-93
2022/11/21 06:49:08;;;;;;;;;0.00;0.00;;;;;;;;5053375;28;8813;-93
2022/11/21 06:51:33;;;;;;;;;0.00;0.00;;;;;;;;5087355;28;8877;-93
2022/11/21 06:53:59;;;;;;;;;0.00;0.00;;;;;;;;5073301;28;8811;-94
2022/11/21 06:56:26;;;;;;;;;0.00;0.00;;;;;;;;5073927;28;8795;-93
2022/11/21 06:58:51;;;;;;;;;0.00;0.00;;;;;;;;5073176;28;8756;-92
2022/11/21 07:01:17;;;;;;;;;0.00;0.00;;;;;;;;5072031;28;8827;-93
2022/11/21 07:03:42;;;;;;;;;0.00;0.00;;;;;;;;5074257;28;8810;-93
2022/11/21 07:06:07;;;;;;;;;0.00;0.00;;;;;;;;5077849;28;8799;-91
2022/11/21 07:08:34;;;;;;;;;0.00;0.00;;;;;;;;5077726;28;8830;-94
2022/11/21 07:11:00;;;;;;;;;0.00;0.00;;;;;;;;5075597;28;8815;-94
2022/11/21 07:13:27;;;;;;;;;0.00;0.00;;;;;;;;5071451;28;8829;-93
2022/11/21 07:15:53;;;;;;;;;0.00;0.00;;;;;;;;5072643;28;8819;-93
2022/11/21 07:18:19;;;;;;;;;0.00;0.00;;;;;;;;5072204;28;8825;-93
2022/11/21 07:20:45;;;;;;;;;0.00;0.00;;;;;;;;5073134;28;8817;-93
2022/11/21 07:23:10;;;;;;;;;0.00;0.00;;;;;;;;5091208;28;8798;-93
2022/11/21 07:25:35;;;;;;;;;0.00;0.00;;;;;;;;5072621;28;8823;-92
2022/11/21 07:28:01;;;;;;;;;0.00;0.00;;;;;;;;5071102;28;8815;-89
2022/11/21 07:30:27;;;;;;;;;0.00;0.00;;;;;;;;5089538;28;9003;-89
2022/11/21 07:32:56;;;;;;;;;0.00;0.00;;;;;;;;5070585;28;9112;-88
2022/11/21 07:35:21;;;;;;;;;0.00;0.00;;;;;;;;5088004;28;8791;-88
2022/11/21 07:37:46;;;;;;;;;0.00;0.00;;;;;;;;5073466;28;8877;-90
2022/11/21 07:40:12;;;;;;;;;0.00;0.00;;;;;;;;5092627;28;8811;-89
2022/11/21 07:42:37;;;;;;;;;0.00;0.00;;;;;;;;5075518;28;8913;-89
2022/11/21 07:45:03;;;;;;;;;0.00;0.00;;;;;;;;5092542;28;8786;-89
2022/11/21 07:47:28;;;;;;;;;0.00;0.00;;;;;;;;5092544;28;8795;-89
2022/11/21 07:49:53;;;;;;;;;0.00;0.00;;;;;;;;5092685;28;8879;-88
2022/11/21 07:52:18;;;;;;;;;0.00;0.00;;;;;;;;5075363;28;9689;-89
2022/11/21 07:54:44;;;;;;;;;0.00;0.00;;;;;;;;5073982;28;9140;-89
2022/11/21 07:57:09;;;;;;;;;0.00;0.00;;;;;;;;5093630;28;8799;-90
2022/11/21 07:59:34;;;;;;;;;0.00;0.00;;;;;;;;5090590;28;8838;-89
2022/11/21 08:01:59;;;;;;;;;0.00;0.00;;;;;;;;5099875;28;8831;-88
2022/11/21 08:04:25;;;;;;;;;12.00;12.00;;;;;;;;5082652;28;8827;-89
2022/11/21 08:06:50;;;;;;;;;0.00;0.00;;;;;;;;5083288;28;9678;-89
2022/11/21 08:09:15;;;;;;;;;0.00;0.00;;;;;;;;5103301;28;8824;-90
2022/11/21 08:11:40;;;;;;;;;0.00;0.00;;;;;;;;5089530;28;9560;-89
2022/11/21 08:14:06;;;;;;;;;0.00;0.00;;;;;;;;5080533;28;8841;-89
2022/11/21 08:16:31;;;;;;;;;0.00;0.00;;;;;;;;5070962;28;8884;-90
2022/11/21 08:18:57;;;;;;;;;0.00;0.00;;;;;;;;5072642;28;8845;-89
2022/11/21 08:21:22;;;;;;;;;0.00;0.00;;;;;;;;5081753;28;8902;-90
2022/11/21 08:23:47;;;;;;;;;0.00;0.00;;;;;;;;5081513;28;8843;-90
2022/11/21 08:26:12;;;;;;;;;0.00;0.00;;;;;;;;5070250;28;9235;-90
2022/11/21 08:28:38;;;;;;;;;0.00;0.00;;;;;;;;5072043;28;8849;-87
2022/11/21 08:31:03;;;;;;;;;0.00;0.00;;;;;;;;5087719;28;8809;-86
2022/11/21 08:33:29;;;;;;;;;0.00;0.00;;;;;;;;5090456;28;8826;-94
2022/11/21 08:35:54;;;;;;;;;0.00;0.00;;;;;;;;5069076;28;8819;-87
2022/11/21 08:38:19;;;;;;;;;0.00;0.00;;;;;;;;5074039;28;8844;-93
2022/11/21 08:40:44;;;;;;;;;0.00;0.00;;;;;;;;5069985;28;8861;-93
2022/11/21 08:43:09;;;;;;;;;16.00;16.00;;;;;;;;5064825;28;9155;-92
2022/11/21 08:45:36;;;;;;;;;0.00;0.00;;;;;;;;5071046;28;8826;-91
2022/11/21 08:48:01;;;;;;;;;0.00;0.00;;;;;;;;5088590;28;8807;-93
2022/11/21 08:50:30;;;;;;;;;0.00;0.00;;;;;;;;5071466;28;8814;-92
2022/11/21 08:53:00;;;;;;;;;0.00;0.00;;;;;;;;5095939;28;8825;-91
2022/11/21 08:55:25;;;;;;;;;0.00;0.00;;;;;;;;5078231;28;8813;-92
2022/11/21 08:57:50;;;;;;;;;0.00;0.00;;;;;;;;5087480;28;8985;-93
2022/11/21 09:00:16;;;;;;;;;0.00;0.00;;;;;;;;5060881;28;9315;-91
2022/11/21 09:02:41;;;;;;;;;4.00;4.00;;;;;;;;5060287;28;8797;-92
2022/11/21 09:05:06;;;;;;;;;0.00;0.00;;;;;;;;5067128;28;8795;-92
2022/11/21 09:07:31;;;;;;;;;6.00;6.00;;;;;;;;5070850;28;8844;-92
2022/11/21 09:09:57;;;;;;;;;40.33;36.33;;;;;;;;5091615;28;8795;-91
2022/11/21 09:12:22;;;;;;;;;0.00;0.00;;;;;;;;5072112;28;9653;-90
2022/11/21 09:20:15;;;;;;;;;0.00;0.00;;;;;;;;5083590;28;8767;-92
2022/11/21 09:22:40;;;;;;;;;0.00;0.00;;;;;;;;5069560;28;8816;-90
2022/11/21 09:25:05;;;;;;;;;0.00;0.00;;;;;;;;5069569;28;8803;-90
2022/11/21 09:27:30;;;;;;;;;0.00;0.00;;;;;;;;5090427;28;8814;-92
2022/11/21 09:29:56;;;;;;;;;0.67;0.67;;;;;;;;5073089;28;8803;-93
2022/11/21 09:32:21;;;;;;;;;0.00;0.00;;;;;;;;5071380;28;8870;-93
2022/11/21 09:34:46;;;;;;;;;0.00;0.00;;;;;;;;5077127;28;9826;-92
2022/11/21 09:37:12;;;;;;;;;0.00;0.00;;;;;;;;5072735;28;8842;-94
2022/11/21 09:39:37;;;;;;;;;0.33;0.33;;;;;;;;5093505;28;8849;-91
2022/11/21 09:42:09;;;;;;;;;0.00;0.00;;;;;;;;5073620;28;9696;-91
2022/11/21 09:44:37;;;;;;;;;0.00;0.00;;;;;;;;5087688;28;8795;-90
2022/11/21 09:47:08;;;;;;;;;0.00;0.00;;;;;;;;5084725;28;8834;-92
2022/11/21 09:49:37;;;;;;;;;0.00;0.00;;;;;;;;5087561;28;8818;-92
2022/11/21 09:52:02;;;;;;;;;0.00;0.00;;;;;;;;5078522;28;8804;-91
2022/11/21 09:54:30;;;;;;;;;106.00;94.00;;;;;;;;5088168;28;8765;-92
2022/11/21 09:56:56;;;;;;;;;0.00;0.00;;;;;;;;5091325;28;8789;-90
2022/11/21 09:59:50;;;;;;;;;0.00;0.00;;;;;;;;5073088;28;8811;-90
2022/11/21 10:02:17;;;;;;;;;0.00;0.00;;;;;;;;5054557;28;8795;-91
2022/11/21 10:04:42;;;;;;;;;0.00;0.00;;;;;;;;5090867;28;8775;-93
2022/11/21 10:07:17;;;;;;;;;0.00;0.00;;;;;;;;5090687;28;8829;-90
2022/11/21 10:09:54;;;;;;;;;0.00;0.00;;;;;;;;5068601;28;8837;-91
2022/11/21 10:12:38;;;;;;;;;0.00;0.00;;;;;;;;5072244;28;8956;-91
2022/11/21 10:15:10;;;;;;;;;0.00;0.00;;;;;;;;5077199;28;8848;-91
2022/11/21 10:17:45;;;;;;;;;0.00;0.00;;;;;;;;5066892;28;8829;-90
2022/11/21 10:20:10;;;;;;;;;0.00;0.00;;;;;;;;5071834;28;9573;-91
2022/11/21 10:22:50;;;;;;;;;0.00;0.00;;;;;;;;5069565;28;8838;-91
2022/11/21 10:25:30;;;;;;;;;0.00;0.00;;;;;;;;5071838;28;8904;-92
2022/11/21 10:28:02;;;;;;;;;0.00;0.00;;;;;;;;5091023;28;8783;-90
2022/11/21 10:30:28;;;;;;;;;0.00;0.00;;;;;;;;5075907;28;8785;-91
2022/11/21 10:32:57;;;;;;;;;0.00;0.00;;;;;;;;5075470;28;8835;-92
2022/11/21 10:35:33;;;;;;;;;0.00;0.00;;;;;;;;5086564;28;8791;-92
2022/11/21 10:37:59;;;;;;;;;0.00;0.00;;;;;;;;5079769;28;8860;-91
2022/11/21 10:40:31;;;;;;;;;0.00;0.00;;;;;;;;5082633;28;8795;-91
2022/11/21 10:42:59;;;;;;;;;0.00;0.00;;;;;;;;5070617;28;8825;-92
2022/11/21 10:45:24;;;;;;;;;0.00;0.00;;;;;;;;5075456;28;8817;-93
2022/11/21 10:47:50;;;;;;;;;0.00;0.00;;;;;;;;5091500;28;8815;-94
2022/11/21 10:50:24;;;;;;;;;0.00;0.00;;;;;;;;5072416;28;8799;-92
2022/11/21 10:54:31;;;;;;;;;0.00;0.00;;;;;;;;5071504;28;8815;-89
2022/11/21 10:55:57;;;;;;;;;0.00;0.00;;;;;;;;5091993;28;8785;-90
2022/11/21 10:58:32;;;;;;;;;0.00;0.00;;;;;;;;5092644;28;8805;-91
2022/11/21 11:00:57;;;;;;;;;0.00;0.00;;;;;;;;5077424;28;9760;-91
2022/11/21 11:03:24;;;;;;;;;0.00;0.00;;;;;;;;5079578;28;8806;-90
2022/11/21 11:05:54;;;;;;;;;0.00;0.00;;;;;;;;5077376;28;8803;-91
2022/11/21 11:08:20;;;;;;;;;0.00;0.00;;;;;;;;5091968;28;8819;-90
2022/11/21 11:10:59;;;;;;;;;0.00;0.00;;;;;;;;5069513;28;8811;-90
2022/11/21 11:13:33;;;;;;;;;0.00;0.00;;;;;;;;5090586;28;8787;-87
2022/11/21 11:15:58;;;;;;;;;0.00;0.00;;;;;;;;5094012;28;9730;-92
2022/11/21 11:18:24;;;;;;;;;0.00;0.00;;;;;;;;5098420;28;8816;-93
2022/11/21 11:20:49;;;;;;;;;0.00;0.00;;;;;;;;5093633;28;8822;-90
2022/11/21 11:23:22;;;;;;;;;0.00;0.00;;;;;;;;5093639;28;9004;-88
2022/11/21 11:25:58;;;;;;;;;0.00;0.00;;;;;;;;5067775;28;8948;-88
2022/11/21 11:28:24;;;;;;;;;0.00;0.00;;;;;;;;5062490;28;8811;-89
2022/11/21 11:30:51;;;;;;;;;0.00;0.00;;;;;;;;5092668;28;9610;-93
2022/11/21 11:33:49;;;;;;;;;0.00;0.00;;;;;;;;5071786;28;8806;-91
2022/11/21 11:36:20;;;;;;;;;0.00;0.00;;;;;;;;5028895;28;8841;-89
2022/11/21 11:38:51;;;;;;;;;0.00;0.00;;;;;;;;5014595;28;8914;-88
2022/11/21 11:47:29;;;;;;;;;0.00;0.00;;;;;;;;5027950;28;8814;-92
2022/11/21 11:47:31;;;;;;;;;0.00;0.00;;;;;;;;5025919;28;8790;-92
2022/11/21 11:50:16;;;;;;;;;0.00;0.00;;;;;;;;5013243;28;8815;-88
2022/11/21 11:52:41;;;;;;;;;0.00;0.00;;;;;;;;5027619;28;8911;-91
2022/11/21 11:55:14;;;;;;;;;0.00;0.00;;;;;;;;5027392;28;8818;-91
2022/11/21 11:57:40;;;;;;;;;0.00;0.00;;;;;;;;5012584;28;9442;-92
2022/11/21 12:00:08;;;;;;;;;0.00;0.00;;;;;;;;5007852;28;8819;-93
2022/11/21 12:02:47;;;;;;;;;0.00;0.00;;;;;;;;5014644;28;8799;-93
2022/11/21 12:05:16;;;;;;;;;0.00;0.00;;;;;;;;5010045;28;8851;-91
2022/11/21 12:07:46;;;;;;;;;0.00;0.00;;;;;;;;5013676;28;8747;-92
2022/11/21 12:10:23;;;;;;;;;0.00;0.00;;;;;;;;5006234;28;8759;-92
2022/11/21 12:12:51;;;;;;;;;0.00;0.00;;;;;;;;5083921;28;8810;-93
2022/11/21 12:15:48;;;;;;;;;0.00;0.00;;;;;;;;5071292;28;8830;-92
2022/11/21 12:18:19;;;;;;;;;0.00;0.00;;;;;;;;5092139;28;8803;-92
2022/11/21 12:21:03;;;;;;;;;0.00;0.00;;;;;;;;5081420;28;8814;-93
2022/11/21 12:23:48;;;;;;;;;0.00;0.00;;;;;;;;5085817;28;8802;-91
2022/11/21 12:26:13;;;;;;;;;0.00;0.00;;;;;;;;5095995;28;8790;-93
2022/11/21 12:28:59;;;;;;;;;0.00;0.00;;;;;;;;5093450;28;8803;-93
2022/11/21 12:31:36;;;;;;;;;0.00;0.00;;;;;;;;5045205;28;8851;-90
2022/11/21 12:34:13;;;;;;;;;0.00;0.00;;;;;;;;5089553;28;8886;-93
2022/11/21 12:36:49;;;;;;;;;18.00;18.00;;;;;;;;5092691;28;8876;-91
2022/11/21 12:39:24;;;;;;;;;0.00;0.00;;;;;;;;5073916;28;8884;-91
2022/11/21 12:45:13;;;;;;;;;0.00;0.00;;;;;;;;5096714;28;8789;-90
2022/11/21 12:56:44;;;;;;;;;0.00;0.00;;;;;;;;5069919;28;28831;-90
2022/11/21 12:59:12;;;;;;;;;0.00;0.00;;;;;;;;5064085;28;28781;-89
2022/11/21 13:01:43;;;;;;;;;0.00;0.00;;;;;;;;5069415;28;28581;-91
2022/11/21 13:04:16;;;;;;;;;0.00;0.00;;;;;;;;5042322;28;28311;-92
2022/11/21 13:06:43;;;;;;;;;0.00;0.00;;;;;;;;5068825;28;45512;-91
2022/11/21 13:09:12;;;;;;;;;0.00;0.00;;;;;;;;5070277;28;28410;-92
2022/11/21 13:14:40;;;;;;;;;0.00;0.00;;;;;;;;5069410;28;28779;-93
2022/11/21 13:17:08;;;;;;;;;0.00;0.00;;;;;;;;5053045;28;30196;-93
2022/11/21 13:19:42;;;;;;;;;0.00;0.00;;;;;;;;5044810;28;43053;-94
2022/11/21 13:22:26;;;;;;;;;0.00;0.00;;;;;;;;5051262;28;28661;-91
2022/11/21 13:24:52;;;;;;;;;0.00;0.00;;;;;;;;5057257;28;28515;-92
2022/11/21 13:27:28;;;;;;;;;0.00;0.00;;;;;;;;5057837;28;30057;-90
2022/11/21 13:30:05;;;;;;;;;0.00;0.00;;;;;;;;5072274;28;28378;-91
2022/11/21 13:32:50;;;;;;;;;0.00;0.00;;;;;;;;5049050;28;28470;-91
2022/11/21 13:35:15;;;;;;;;;0.00;0.00;;;;;;;;5049563;28;28692;-93
2022/11/21 13:37:49;;;;;;;;;0.00;0.00;;;;;;;;5071126;28;29310;-95
2022/11/21 13:40:26;;;;;;;;;0.00;0.00;;;;;;;;5052976;28;28502;-91
2022/11/21 13:43:10;;;;;;;;;0.00;0.00;;;;;;;;5068239;28;28707;-92
2022/11/21 13:45:45;;;;;;;;;0.00;0.00;;;;;;;;5064927;28;28713;-92
2022/11/21 13:48:25;;;;;;;;;0.00;0.00;;;;;;;;5068434;28;28667;-93
2022/11/21 13:50:50;;;;;;;;;0.00;0.00;;;;;;;;5064105;28;28537;-91
2022/11/21 13:53:36;;;;;;;;;0.00;0.00;;;;;;;;5072901;28;28415;-93
2022/11/21 13:56:02;;;;;;;;;0.00;0.00;;;;;;;;5067804;28;28395;-93
2022/11/21 13:58:27;;;;;;;;;0.00;0.00;;;;;;;;5052336;28;30266;-93
2022/11/21 14:00:52;;;;;;;;;0.00;0.00;;;;;;;;5046242;28;28498;-92
2022/11/21 14:03:23;;;;;;;;;0.00;0.00;;;;;;;;5071602;28;28503;-93
2022/11/21 14:05:54;;;;;;;;;1.00;0.00;;;;;;;;5074044;28;27910;-93
2022/11/21 14:08:21;;;;;;;;;0.00;0.00;;;;;;;;5044130;28;29340;-93
2022/11/21 14:10:47;;;;;;;;;0.00;0.00;;;;;;;;5052672;28;28896;-93
2022/11/21 14:13:33;;;;;;;;;0.00;0.00;;;;;;;;5071546;28;27911;-93
2022/11/21 14:15:58;;;;;;;;;0.00;0.00;;;;;;;;5070182;28;28457;-92
2022/11/21 14:18:23;;;;;;;;;0.75;0.75;;;;;;;;5050260;28;29964;-93
2022/11/21 14:20:59;;;;;;;;;0.00;0.00;;;;;;;;5056996;28;29819;-94
2022/11/21 14:23:26;;;;;;;;;0.00;0.00;;;;;;;;5044508;28;28551;-92
2022/11/21 14:25:58;;;;;;;;;0.00;0.00;;;;;;;;5053468;28;28621;-94
2022/11/21 14:28:24;;;;;;;;;0.00;0.00;;;;;;;;5049414;28;29670;-92
2022/11/21 14:30:54;;;;;;;;;0.00;0.00;;;;;;;;5057865;28;28950;-94
2022/11/21 14:33:21;;;;;;;;;0.00;0.00;;;;;;;;5078393;28;28616;-94
2022/11/21 14:35:47;;;;;;;;;0.00;0.00;;;;;;;;5055574;28;28479;-93
2022/11/21 14:38:13;;;;;;;;;0.00;0.00;;;;;;;;5051914;28;29771;-95
2022/11/21 14:40:38;;;;;;;;;0.00;0.00;;;;;;;;5070738;28;28839;-95
2022/11/21 14:43:20;;;;;;;;;0.00;0.00;;;;;;;;5064436;28;28512;-94
2022/11/21 14:45:48;;;;;;;;;0.00;0.00;;;;;;;;5049543;28;27912;-94
2022/11/21 14:48:13;;;;;;;;;7.00;7.00;;;;;;;;5051130;28;30411;-92
2022/11/21 14:50:40;;;;;;;;;0.00;0.00;;;;;;;;5051767;28;28411;-92
2022/11/21 14:53:06;;;;;;;;;0.00;0.00;;;;;;;;5049739;28;27805;-94
2022/11/21 14:55:31;;;;;;;;;0.00;0.00;;;;;;;;5051506;28;28910;-93
2022/11/21 14:57:58;;;;;;;;;0.00;0.00;;;;;;;;5051546;28;30499;-94
2022/11/21 15:00:24;;;;;;;;;0.00;0.00;;;;;;;;5067463;28;28468;-95
2022/11/21 15:02:54;;;;;;;;;0.00;0.00;;;;;;;;5046846;28;28586;-94
2022/11/21 15:05:22;;;;;;;;;0.00;0.00;;;;;;;;5046056;28;29016;-92
2022/11/21 15:07:47;;;;;;;;;0.00;0.00;;;;;;;;5069540;28;29325;-93
2022/11/21 15:10:13;;;;;;;;;0.00;0.00;;;;;;;;5067212;28;28489;-94
2022/11/21 15:12:57;;;;;;;;;0.00;0.00;;;;;;;;5062608;28;28642;-96
2022/11/21 15:15:25;;;;;;;;;0.00;0.00;;;;;;;;5069729;28;28484;-94
2022/11/21 15:17:55;;;;;;;;;0.00;0.00;;;;;;;;5049548;28;45242;-93
2022/11/21 15:20:21;;;;;;;;;0.00;0.00;;;;;;;;5040464;28;44847;-91
2022/11/21 15:22:47;;;;;;;;;0.00;0.00;;;;;;;;5046487;28;40215;-92
2022/11/21 15:25:14;;;;;;;;;0.00;0.00;;;;;;;;5062601;28;42542;-92
2022/11/21 15:27:39;;;;;;;;;0.00;0.00;;;;;;;;5062578;28;38687;-92
2022/11/21 15:30:13;;;;;;;;;0.00;0.00;;;;;;;;5089661;28;8837;-93